Glen Mary, Tennessee
Current Conditions -  °F | °C
As of 7:53 AM on Monday 22 Dec 2014 (Local Time) from KOQT Reporting Station
Overcast Overcast  
Wind Chill: 43°   Ceiling: 3300
Heat Index: 45°   Visibility: 10mi
Dew Point: 37°   Wind: 5mph
Humidity: 74%   Direction: 70°ENE
Pressure: 30.04"   Gusts: NA
Location:  36.3261°N, 84.5712°W
Report Text: KOQT 221253Z AUTO 07004KT 10SM OVC033 07/03 A3004 RMK AO2 SLP178 T00720028
Loading
Personal Weather Stations






























Interactive Weather Map New forecast layout! Learn more

10-Day Weather Forecast

Advertisements
Track Severe Weather on mobile